sensor_id;sensor_type;location;lat;lon;timestamp;P1;durP1;ratioP1;P2;durP2;ratioP2
12871;SDS011;6504;53.766;9.626;2022-12-07T00:01:18;13.67;;;12.20;;
12871;SDS011;6504;53.766;9.626;2022-12-07T00:03:49;13.33;;;11.90;;
12871;SDS011;6504;53.766;9.626;2022-12-07T00:06:18;13.70;;;12.40;;
12871;SDS011;6504;53.766;9.626;2022-12-07T00:08:47;13.07;;;11.77;;
12871;SDS011;6504;53.766;9.626;2022-12-07T00:11:17;13.43;;;12.13;;
12871;SDS011;6504;53.766;9.626;2022-12-07T00:13:47;13.07;;;11.57;;
12871;SDS011;6504;53.766;9.626;2022-12-07T00:16:19;12.60;;;11.40;;
12871;SDS011;6504;53.766;9.626;2022-12-07T00:18:49;12.23;;;11.03;;
12871;SDS011;6504;53.766;9.626;2022-12-07T00:21:18;12.47;;;11.17;;
12871;SDS011;6504;53.766;9.626;2022-12-07T00:23:49;12.80;;;10.93;;
12871;SDS011;6504;53.766;9.626;2022-12-07T00:26:19;10.97;;;9.77;;
12871;SDS011;6504;53.766;9.626;2022-12-07T00:28:49;10.97;;;9.87;;
12871;SDS011;6504;53.766;9.626;2022-12-07T00:31:19;10.30;;;9.20;;
12871;SDS011;6504;53.766;9.626;2022-12-07T00:33:49;8.93;;;8.13;;
12871;SDS011;6504;53.766;9.626;2022-12-07T00:36:17;8.90;;;8.00;;
12871;SDS011;6504;53.766;9.626;2022-12-07T00:38:54;9.70;;;8.03;;
12871;SDS011;6504;53.766;9.626;2022-12-07T00:41:23;9.70;;;7.90;;
12871;SDS011;6504;53.766;9.626;2022-12-07T00:43:53;9.73;;;7.97;;
12871;SDS011;6504;53.766;9.626;2022-12-07T00:46:21;9.83;;;7.87;;
12871;SDS011;6504;53.766;9.626;2022-12-07T00:48:51;9.23;;;8.43;;
12871;SDS011;6504;53.766;9.626;2022-12-07T00:51:20;8.73;;;7.83;;
12871;SDS011;6504;53.766;9.626;2022-12-07T00:53:49;8.73;;;7.73;;
12871;SDS011;6504;53.766;9.626;2022-12-07T00:56:20;8.43;;;7.43;;
12871;SDS011;6504;53.766;9.626;2022-12-07T00:58:49;8.50;;;7.67;;
12871;SDS011;6504;53.766;9.626;2022-12-07T01:01:18;10.13;;;8.10;;
12871;SDS011;6504;53.766;9.626;2022-12-07T01:03:47;9.33;;;7.37;;
12871;SDS011;6504;53.766;9.626;2022-12-07T01:06:15;7.77;;;6.97;;
12871;SDS011;6504;53.766;9.626;2022-12-07T01:08:44;8.67;;;6.80;;
12871;SDS011;6504;53.766;9.626;2022-12-07T01:11:14;9.50;;;7.00;;
12871;SDS011;6504;53.766;9.626;2022-12-07T01:13:45;8.57;;;7.13;;
12871;SDS011;6504;53.766;9.626;2022-12-07T01:16:14;7.10;;;6.40;;
12871;SDS011;6504;53.766;9.626;2022-12-07T01:18:45;7.03;;;6.33;;
12871;SDS011;6504;53.766;9.626;2022-12-07T01:21:14;8.03;;;6.57;;
12871;SDS011;6504;53.766;9.626;2022-12-07T01:23:44;8.10;;;6.00;;
12871;SDS011;6504;53.766;9.626;2022-12-07T01:26:12;7.77;;;6.20;;
12871;SDS011;6504;53.766;9.626;2022-12-07T01:28:42;8.30;;;5.53;;
12871;SDS011;6504;53.766;9.626;2022-12-07T01:31:12;6.60;;;5.20;;
12871;SDS011;6504;53.766;9.626;2022-12-07T01:33:43;9.53;;;5.33;;
12871;SDS011;6504;53.766;9.626;2022-12-07T01:36:13;5.10;;;4.60;;
12871;SDS011;6504;53.766;9.626;2022-12-07T01:38:46;7.80;;;4.70;;
12871;SDS011;6504;53.766;9.626;2022-12-07T01:41:15;5.03;;;4.27;;
12871;SDS011;6504;53.766;9.626;2022-12-07T01:46:38;6.47;;;4.20;;
12871;SDS011;6504;53.766;9.626;2022-12-07T01:49:08;6.87;;;4.20;;
12871;SDS011;6504;53.766;9.626;2022-12-07T01:51:40;6.93;;;3.33;;
12871;SDS011;6504;53.766;9.626;2022-12-07T01:54:10;5.40;;;3.30;;
12871;SDS011;6504;53.766;9.626;2022-12-07T01:56:40;5.57;;;3.37;;
12871;SDS011;6504;53.766;9.626;2022-12-07T01:59:14;3.67;;;2.70;;
12871;SDS011;6504;53.766;9.626;2022-12-07T02:01:45;4.43;;;2.70;;
12871;SDS011;6504;53.766;9.626;2022-12-07T02:04:13;3.00;;;1.97;;
12871;SDS011;6504;53.766;9.626;2022-12-07T02:06:42;1.63;;;1.53;;
12871;SDS011;6504;53.766;9.626;2022-12-07T02:09:11;2.13;;;1.43;;
12871;SDS011;6504;53.766;9.626;2022-12-07T02:11:39;2.30;;;1.40;;
12871;SDS011;6504;53.766;9.626;2022-12-07T02:14:08;2.27;;;1.30;;
12871;SDS011;6504;53.766;9.626;2022-12-07T02:16:38;3.40;;;1.30;;
12871;SDS011;6504;53.766;9.626;2022-12-07T02:19:36;1.10;;;1.00;;
12871;SDS011;6504;53.766;9.626;2022-12-07T02:22:36;2.67;;;1.30;;
12871;SDS011;6504;53.766;9.626;2022-12-07T02:25:29;4.77;;;1.97;;
12871;SDS011;6504;53.766;9.626;2022-12-07T02:28:12;3.50;;;1.37;;
12871;SDS011;6504;53.766;9.626;2022-12-07T02:30:50;1.63;;;1.10;;
12871;SDS011;6504;53.766;9.626;2022-12-07T02:33:21;2.10;;;1.30;;
12871;SDS011;6504;53.766;9.626;2022-12-07T02:35:54;1.20;;;1.00;;
12871;SDS011;6504;53.766;9.626;2022-12-07T02:38:28;1.40;;;1.30;;
12871;SDS011;6504;53.766;9.626;2022-12-07T02:41:02;2.97;;;1.40;;
12871;SDS011;6504;53.766;9.626;2022-12-07T02:43:34;2.37;;;1.40;;
12871;SDS011;6504;53.766;9.626;2022-12-07T02:46:08;1.50;;;1.23;;
12871;SDS011;6504;53.766;9.626;2022-12-07T02:48:38;1.60;;;1.20;;
12871;SDS011;6504;53.766;9.626;2022-12-07T02:51:08;2.50;;;1.43;;
12871;SDS011;6504;53.766;9.626;2022-12-07T02:53:37;2.50;;;1.30;;
12871;SDS011;6504;53.766;9.626;2022-12-07T02:56:07;1.97;;;1.40;;
12871;SDS011;6504;53.766;9.626;2022-12-07T02:58:49;3.27;;;1.90;;
12871;SDS011;6504;53.766;9.626;2022-12-07T03:01:30;3.93;;;2.27;;
12871;SDS011;6504;53.766;9.626;2022-12-07T03:04:08;4.00;;;1.47;;
12871;SDS011;6504;53.766;9.626;2022-12-07T03:06:48;2.87;;;2.07;;
12871;SDS011;6504;53.766;9.626;2022-12-07T03:09:21;3.87;;;1.77;;
12871;SDS011;6504;53.766;9.626;2022-12-07T03:11:57;4.53;;;2.13;;
12871;SDS011;6504;53.766;9.626;2022-12-07T03:14:34;2.63;;;1.77;;
12871;SDS011;6504;53.766;9.626;2022-12-07T03:17:07;3.37;;;1.90;;
12871;SDS011;6504;53.766;9.626;2022-12-07T03:19:40;5.20;;;2.00;;
12871;SDS011;6504;53.766;9.626;2022-12-07T03:22:11;4.10;;;1.90;;
12871;SDS011;6504;53.766;9.626;2022-12-07T03:24:41;4.67;;;2.30;;
12871;SDS011;6504;53.766;9.626;2022-12-07T03:27:15;2.57;;;2.20;;
12871;SDS011;6504;53.766;9.626;2022-12-07T03:29:47;4.57;;;2.13;;
12871;SDS011;6504;53.766;9.626;2022-12-07T03:32:23;3.17;;;2.40;;
12871;SDS011;6504;53.766;9.626;2022-12-07T03:34:57;3.47;;;2.27;;
12871;SDS011;6504;53.766;9.626;2022-12-07T03:37:33;3.37;;;2.63;;
12871;SDS011;6504;53.766;9.626;2022-12-07T03:40:05;3.03;;;2.60;;
12871;SDS011;6504;53.766;9.626;2022-12-07T03:42:45;3.40;;;2.40;;
12871;SDS011;6504;53.766;9.626;2022-12-07T03:45:14;5.53;;;3.20;;
12871;SDS011;6504;53.766;9.626;2022-12-07T03:47:46;3.33;;;3.03;;
12871;SDS011;6504;53.766;9.626;2022-12-07T03:50:20;4.73;;;3.03;;
12871;SDS011;6504;53.766;9.626;2022-12-07T03:52:54;6.43;;;3.30;;
12871;SDS011;6504;53.766;9.626;2022-12-07T03:55:27;3.93;;;3.30;;
12871;SDS011;6504;53.766;9.626;2022-12-07T03:58:00;7.73;;;3.27;;
12871;SDS011;6504;53.766;9.626;2022-12-07T04:00:31;3.83;;;3.10;;
12871;SDS011;6504;53.766;9.626;2022-12-07T04:03:00;4.77;;;3.10;;
12871;SDS011;6504;53.766;9.626;2022-12-07T04:05:28;4.70;;;3.50;;
12871;SDS011;6504;53.766;9.626;2022-12-07T04:07:57;4.17;;;3.27;;
12871;SDS011;6504;53.766;9.626;2022-12-07T04:10:25;3.50;;;3.10;;
12871;SDS011;6504;53.766;9.626;2022-12-07T04:12:53;4.77;;;3.23;;
12871;SDS011;6504;53.766;9.626;2022-12-07T04:15:22;3.37;;;2.87;;
12871;SDS011;6504;53.766;9.626;2022-12-07T04:17:50;5.43;;;3.60;;
12871;SDS011;6504;53.766;9.626;2022-12-07T04:20:20;4.83;;;3.90;;
12871;SDS011;6504;53.766;9.626;2022-12-07T04:22:48;4.37;;;3.33;;
12871;SDS011;6504;53.766;9.626;2022-12-07T04:25:16;5.07;;;3.83;;
12871;SDS011;6504;53.766;9.626;2022-12-07T04:27:44;5.47;;;3.77;;
12871;SDS011;6504;53.766;9.626;2022-12-07T04:30:12;4.47;;;3.60;;
12871;SDS011;6504;53.766;9.626;2022-12-07T04:32:40;3.97;;;3.10;;
12871;SDS011;6504;53.766;9.626;2022-12-07T04:35:08;3.50;;;3.20;;
12871;SDS011;6504;53.766;9.626;2022-12-07T04:37:38;3.90;;;3.30;;
12871;SDS011;6504;53.766;9.626;2022-12-07T04:40:07;4.37;;;3.40;;
12871;SDS011;6504;53.766;9.626;2022-12-07T04:42:37;3.57;;;3.23;;
12871;SDS011;6504;53.766;9.626;2022-12-07T04:45:06;4.43;;;3.17;;
12871;SDS011;6504;53.766;9.626;2022-12-07T04:47:34;4.00;;;3.23;;
12871;SDS011;6504;53.766;9.626;2022-12-07T04:50:03;4.17;;;3.30;;
12871;SDS011;6504;53.766;9.626;2022-12-07T04:52:32;4.07;;;3.17;;
12871;SDS011;6504;53.766;9.626;2022-12-07T04:55:01;3.77;;;2.87;;
12871;SDS011;6504;53.766;9.626;2022-12-07T04:57:29;4.53;;;2.70;;
12871;SDS011;6504;53.766;9.626;2022-12-07T04:59:57;3.73;;;2.53;;
12871;SDS011;6504;53.766;9.626;2022-12-07T05:02:26;3.60;;;2.23;;
12871;SDS011;6504;53.766;9.626;2022-12-07T05:04:54;2.97;;;2.67;;
12871;SDS011;6504;53.766;9.626;2022-12-07T05:07:22;3.67;;;3.37;;
12871;SDS011;6504;53.766;9.626;2022-12-07T05:09:50;3.73;;;2.80;;
12871;SDS011;6504;53.766;9.626;2022-12-07T05:12:20;3.37;;;2.90;;
12871;SDS011;6504;53.766;9.626;2022-12-07T05:14:48;3.10;;;2.70;;
12871;SDS011;6504;53.766;9.626;2022-12-07T05:17:16;2.97;;;2.57;;
12871;SDS011;6504;53.766;9.626;2022-12-07T05:19:44;3.40;;;2.70;;
12871;SDS011;6504;53.766;9.626;2022-12-07T05:22:12;3.33;;;3.03;;
12871;SDS011;6504;53.766;9.626;2022-12-07T05:24:41;3.70;;;3.10;;
12871;SDS011;6504;53.766;9.626;2022-12-07T05:27:09;3.67;;;3.33;;
12871;SDS011;6504;53.766;9.626;2022-12-07T05:29:38;5.30;;;3.40;;
12871;SDS011;6504;53.766;9.626;2022-12-07T05:32:06;3.47;;;3.17;;
12871;SDS011;6504;53.766;9.626;2022-12-07T05:34:34;4.50;;;2.80;;
12871;SDS011;6504;53.766;9.626;2022-12-07T05:37:02;3.23;;;2.93;;
12871;SDS011;6504;53.766;9.626;2022-12-07T05:39:30;3.37;;;2.97;;
12871;SDS011;6504;53.766;9.626;2022-12-07T05:41:58;3.03;;;2.63;;
12871;SDS011;6504;53.766;9.626;2022-12-07T05:44:40;5.27;;;2.93;;
12871;SDS011;6504;53.766;9.626;2022-12-07T05:47:09;2.83;;;2.53;;
12871;SDS011;6504;53.766;9.626;2022-12-07T05:49:38;4.43;;;3.17;;
12871;SDS011;6504;53.766;9.626;2022-12-07T05:52:06;3.93;;;2.80;;
12871;SDS011;6504;53.766;9.626;2022-12-07T05:54:34;3.93;;;3.07;;
12871;SDS011;6504;53.766;9.626;2022-12-07T05:57:02;2.70;;;2.50;;
12871;SDS011;6504;53.766;9.626;2022-12-07T05:59:30;3.80;;;2.97;;
12871;SDS011;6504;53.766;9.626;2022-12-07T06:01:59;2.90;;;2.70;;
12871;SDS011;6504;53.766;9.626;2022-12-07T06:04:29;2.73;;;2.53;;
12871;SDS011;6504;53.766;9.626;2022-12-07T06:06:59;3.30;;;2.63;;
12871;SDS011;6504;53.766;9.626;2022-12-07T06:09:27;2.80;;;2.60;;
12871;SDS011;6504;53.766;9.626;2022-12-07T06:11:55;4.47;;;2.90;;
12871;SDS011;6504;53.766;9.626;2022-12-07T06:14:52;3.17;;;2.73;;
12871;SDS011;6504;53.766;9.626;2022-12-07T06:17:21;3.07;;;2.77;;
12871;SDS011;6504;53.766;9.626;2022-12-07T06:19:49;3.23;;;2.87;;
12871;SDS011;6504;53.766;9.626;2022-12-07T06:22:17;3.90;;;2.63;;
12871;SDS011;6504;53.766;9.626;2022-12-07T06:24:45;3.93;;;2.70;;
12871;SDS011;6504;53.766;9.626;2022-12-07T06:27:13;3.73;;;2.50;;
12871;SDS011;6504;53.766;9.626;2022-12-07T06:29:41;3.23;;;2.57;;
12871;SDS011;6504;53.766;9.626;2022-12-07T06:32:09;2.80;;;2.60;;
12871;SDS011;6504;53.766;9.626;2022-12-07T06:34:39;4.27;;;2.70;;
12871;SDS011;6504;53.766;9.626;2022-12-07T06:37:07;3.33;;;3.03;;
12871;SDS011;6504;53.766;9.626;2022-12-07T06:39:36;3.13;;;2.20;;
12871;SDS011;6504;53.766;9.626;2022-12-07T06:42:05;5.10;;;2.30;;
12871;SDS011;6504;53.766;9.626;2022-12-07T06:44:33;3.77;;;2.30;;
12871;SDS011;6504;53.766;9.626;2022-12-07T06:47:01;2.13;;;1.93;;
12871;SDS011;6504;53.766;9.626;2022-12-07T06:49:52;2.97;;;2.10;;
12871;SDS011;6504;53.766;9.626;2022-12-07T06:52:20;3.03;;;1.97;;
12871;SDS011;6504;53.766;9.626;2022-12-07T06:54:48;2.40;;;2.20;;
12871;SDS011;6504;53.766;9.626;2022-12-07T06:57:16;3.97;;;1.87;;
12871;SDS011;6504;53.766;9.626;2022-12-07T06:59:44;3.40;;;2.00;;
12871;SDS011;6504;53.766;9.626;2022-12-07T07:02:12;3.17;;;2.30;;
12871;SDS011;6504;53.766;9.626;2022-12-07T07:04:40;3.07;;;2.73;;
12871;SDS011;6504;53.766;9.626;2022-12-07T07:07:09;3.03;;;1.97;;
12871;SDS011;6504;53.766;9.626;2022-12-07T07:09:37;2.53;;;2.00;;
12871;SDS011;6504;53.766;9.626;2022-12-07T07:12:05;2.70;;;1.63;;
12871;SDS011;6504;53.766;9.626;2022-12-07T07:14:33;3.30;;;1.80;;
12871;SDS011;6504;53.766;9.626;2022-12-07T07:17:02;3.67;;;1.70;;
12871;SDS011;6504;53.766;9.626;2022-12-07T07:19:30;4.23;;;1.80;;
12871;SDS011;6504;53.766;9.626;2022-12-07T07:21:58;2.80;;;1.87;;
12871;SDS011;6504;53.766;9.626;2022-12-07T07:24:27;4.07;;;1.80;;
12871;SDS011;6504;53.766;9.626;2022-12-07T07:26:55;4.97;;;2.00;;
12871;SDS011;6504;53.766;9.626;2022-12-07T07:29:23;2.90;;;1.80;;
12871;SDS011;6504;53.766;9.626;2022-12-07T07:31:51;3.53;;;1.93;;
12871;SDS011;6504;53.766;9.626;2022-12-07T07:34:19;2.23;;;1.67;;
12871;SDS011;6504;53.766;9.626;2022-12-07T07:36:47;4.73;;;2.20;;
12871;SDS011;6504;53.766;9.626;2022-12-07T07:39:15;3.27;;;2.20;;
12871;SDS011;6504;53.766;9.626;2022-12-07T07:41:45;6.10;;;2.47;;
12871;SDS011;6504;53.766;9.626;2022-12-07T07:44:13;3.87;;;3.03;;
12871;SDS011;6504;53.766;9.626;2022-12-07T07:46:41;6.40;;;3.33;;
12871;SDS011;6504;53.766;9.626;2022-12-07T07:49:09;4.00;;;3.00;;
12871;SDS011;6504;53.766;9.626;2022-12-07T07:51:38;4.47;;;3.33;;
12871;SDS011;6504;53.766;9.626;2022-12-07T07:54:06;4.83;;;3.03;;
12871;SDS011;6504;53.766;9.626;2022-12-07T07:56:34;3.50;;;2.83;;
12871;SDS011;6504;53.766;9.626;2022-12-07T07:59:03;3.20;;;2.50;;
12871;SDS011;6504;53.766;9.626;2022-12-07T08:01:31;2.43;;;2.07;;
12871;SDS011;6504;53.766;9.626;2022-12-07T08:03:59;3.73;;;2.50;;
12871;SDS011;6504;53.766;9.626;2022-12-07T08:06:28;4.03;;;2.23;;
12871;SDS011;6504;53.766;9.626;2022-12-07T08:08:57;1.57;;;1.47;;
12871;SDS011;6504;53.766;9.626;2022-12-07T08:11:26;3.23;;;1.93;;
12871;SDS011;6504;53.766;9.626;2022-12-07T08:13:54;3.23;;;1.70;;
12871;SDS011;6504;53.766;9.626;2022-12-07T08:16:23;3.23;;;1.70;;
12871;SDS011;6504;53.766;9.626;2022-12-07T08:18:51;4.77;;;1.70;;
12871;SDS011;6504;53.766;9.626;2022-12-07T08:21:19;5.30;;;1.70;;
12871;SDS011;6504;53.766;9.626;2022-12-07T08:23:48;3.50;;;1.60;;
12871;SDS011;6504;53.766;9.626;2022-12-07T08:26:16;3.87;;;1.50;;
12871;SDS011;6504;53.766;9.626;2022-12-07T08:28:44;2.67;;;1.33;;
12871;SDS011;6504;53.766;9.626;2022-12-07T08:31:13;3.73;;;1.60;;
12871;SDS011;6504;53.766;9.626;2022-12-07T08:33:44;1.40;;;1.30;;
12871;SDS011;6504;53.766;9.626;2022-12-07T08:36:12;3.10;;;1.30;;
12871;SDS011;6504;53.766;9.626;2022-12-07T08:38:41;2.03;;;1.30;;
12871;SDS011;6504;53.766;9.626;2022-12-07T08:41:29;1.30;;;1.03;;
12871;SDS011;6504;53.766;9.626;2022-12-07T08:43:57;2.43;;;1.17;;
12871;SDS011;6504;53.766;9.626;2022-12-07T08:46:26;3.93;;;1.30;;
12871;SDS011;6504;53.766;9.626;2022-12-07T08:49:03;2.30;;;1.23;;
12871;SDS011;6504;53.766;9.626;2022-12-07T08:51:34;3.27;;;1.60;;
12871;SDS011;6504;53.766;9.626;2022-12-07T08:54:04;3.40;;;1.47;;
12871;SDS011;6504;53.766;9.626;2022-12-07T08:56:34;4.10;;;1.53;;
12871;SDS011;6504;53.766;9.626;2022-12-07T08:59:03;6.07;;;1.90;;
12871;SDS011;6504;53.766;9.626;2022-12-07T09:01:32;4.10;;;2.10;;
12871;SDS011;6504;53.766;9.626;2022-12-07T09:04:01;6.13;;;2.27;;
12871;SDS011;6504;53.766;9.626;2022-12-07T09:06:30;2.83;;;1.30;;
12871;SDS011;6504;53.766;9.626;2022-12-07T09:08:58;4.37;;;1.50;;
12871;SDS011;6504;53.766;9.626;2022-12-07T09:11:29;5.23;;;2.03;;
12871;SDS011;6504;53.766;9.626;2022-12-07T09:13:57;3.40;;;1.70;;
12871;SDS011;6504;53.766;9.626;2022-12-07T09:16:25;2.80;;;1.40;;
12871;SDS011;6504;53.766;9.626;2022-12-07T09:18:53;5.97;;;1.40;;
12871;SDS011;6504;53.766;9.626;2022-12-07T09:21:23;4.37;;;1.40;;
12871;SDS011;6504;53.766;9.626;2022-12-07T09:23:51;4.23;;;1.80;;
12871;SDS011;6504;53.766;9.626;2022-12-07T09:26:19;6.47;;;2.57;;
12871;SDS011;6504;53.766;9.626;2022-12-07T09:28:47;3.50;;;2.07;;
12871;SDS011;6504;53.766;9.626;2022-12-07T09:31:15;5.47;;;3.07;;
12871;SDS011;6504;53.766;9.626;2022-12-07T09:33:54;6.67;;;2.53;;
12871;SDS011;6504;53.766;9.626;2022-12-07T09:36:24;5.87;;;2.10;;
12871;SDS011;6504;53.766;9.626;2022-12-07T09:38:53;5.07;;;2.17;;
12871;SDS011;6504;53.766;9.626;2022-12-07T09:41:21;8.40;;;2.20;;
12871;SDS011;6504;53.766;9.626;2022-12-07T09:43:51;6.10;;;2.20;;
12871;SDS011;6504;53.766;9.626;2022-12-07T09:46:20;3.37;;;2.00;;
12871;SDS011;6504;53.766;9.626;2022-12-07T09:48:49;4.53;;;2.13;;
12871;SDS011;6504;53.766;9.626;2022-12-07T09:51:18;4.70;;;1.97;;
12871;SDS011;6504;53.766;9.626;2022-12-07T09:53:52;4.70;;;2.03;;
12871;SDS011;6504;53.766;9.626;2022-12-07T09:56:21;4.87;;;2.00;;
12871;SDS011;6504;53.766;9.626;2022-12-07T09:58:51;6.57;;;2.20;;
12871;SDS011;6504;53.766;9.626;2022-12-07T10:01:27;6.47;;;2.30;;
12871;SDS011;6504;53.766;9.626;2022-12-07T10:03:59;6.30;;;2.80;;
12871;SDS011;6504;53.766;9.626;2022-12-07T10:06:33;4.83;;;2.47;;
12871;SDS011;6504;53.766;9.626;2022-12-07T10:09:02;6.90;;;2.13;;
12871;SDS011;6504;53.766;9.626;2022-12-07T10:14:25;7.60;;;2.07;;
12871;SDS011;6504;53.766;9.626;2022-12-07T10:17:29;6.30;;;1.60;;
12871;SDS011;6504;53.766;9.626;2022-12-07T10:20:14;6.37;;;1.60;;
12871;SDS011;6504;53.766;9.626;2022-12-07T10:22:55;4.67;;;1.53;;
12871;SDS011;6504;53.766;9.626;2022-12-07T10:25:27;7.60;;;1.97;;
12871;SDS011;6504;53.766;9.626;2022-12-07T10:30:49;3.93;;;1.80;;
12871;SDS011;6504;53.766;9.626;2022-12-07T10:33:33;6.87;;;2.17;;
12871;SDS011;6504;53.766;9.626;2022-12-07T10:36:15;5.57;;;1.70;;
12871;SDS011;6504;53.766;9.626;2022-12-07T10:38:47;5.30;;;2.27;;
12871;SDS011;6504;53.766;9.626;2022-12-07T10:41:18;4.77;;;1.80;;
12871;SDS011;6504;53.766;9.626;2022-12-07T10:43:47;6.67;;;1.67;;
12871;SDS011;6504;53.766;9.626;2022-12-07T10:46:21;5.20;;;1.70;;
12871;SDS011;6504;53.766;9.626;2022-12-07T10:49:18;6.97;;;1.63;;
12871;SDS011;6504;53.766;9.626;2022-12-07T10:52:07;10.40;;;3.43;;
12871;SDS011;6504;53.766;9.626;2022-12-07T10:54:47;5.60;;;1.90;;
12871;SDS011;6504;53.766;9.626;2022-12-07T10:57:39;7.27;;;1.80;;
12871;SDS011;6504;53.766;9.626;2022-12-07T11:00:21;6.03;;;1.83;;
12871;SDS011;6504;53.766;9.626;2022-12-07T11:02:53;5.53;;;1.53;;
12871;SDS011;6504;53.766;9.626;2022-12-07T11:05:37;6.47;;;1.70;;
12871;SDS011;6504;53.766;9.626;2022-12-07T11:08:12;10.03;;;2.60;;
12871;SDS011;6504;53.766;9.626;2022-12-07T11:10:48;4.80;;;2.57;;
12871;SDS011;6504;53.766;9.626;2022-12-07T11:13:27;7.13;;;2.63;;
12871;SDS011;6504;53.766;9.626;2022-12-07T11:16:16;6.83;;;2.73;;
12871;SDS011;6504;53.766;9.626;2022-12-07T11:18:59;8.93;;;2.20;;
12871;SDS011;6504;53.766;9.626;2022-12-07T11:21:43;5.97;;;2.13;;
12871;SDS011;6504;53.766;9.626;2022-12-07T11:24:19;7.17;;;1.83;;
12871;SDS011;6504;53.766;9.626;2022-12-07T11:26:58;5.07;;;1.83;;
12871;SDS011;6504;53.766;9.626;2022-12-07T11:29:56;4.90;;;1.73;;
12871;SDS011;6504;53.766;9.626;2022-12-07T11:32:41;5.83;;;1.93;;
12871;SDS011;6504;53.766;9.626;2022-12-07T11:35:19;6.87;;;1.73;;
12871;SDS011;6504;53.766;9.626;2022-12-07T11:37:58;4.17;;;1.77;;
12871;SDS011;6504;53.766;9.626;2022-12-07T11:40:30;10.30;;;1.70;;
12871;SDS011;6504;53.766;9.626;2022-12-07T11:43:04;6.03;;;1.80;;
12871;SDS011;6504;53.766;9.626;2022-12-07T11:45:41;6.60;;;2.10;;
12871;SDS011;6504;53.766;9.626;2022-12-07T11:48:12;6.43;;;1.90;;
12871;SDS011;6504;53.766;9.626;2022-12-07T11:50:45;7.27;;;1.80;;
12871;SDS011;6504;53.766;9.626;2022-12-07T11:53:17;8.17;;;2.30;;
12871;SDS011;6504;53.766;9.626;2022-12-07T11:55:49;5.83;;;1.90;;
12871;SDS011;6504;53.766;9.626;2022-12-07T11:58:22;6.27;;;2.50;;
12871;SDS011;6504;53.766;9.626;2022-12-07T12:01:08;7.07;;;2.20;;
12871;SDS011;6504;53.766;9.626;2022-12-07T12:03:44;8.07;;;2.27;;
12871;SDS011;6504;53.766;9.626;2022-12-07T12:06:19;5.03;;;1.80;;
12871;SDS011;6504;53.766;9.626;2022-12-07T12:08:48;6.10;;;2.00;;
12871;SDS011;6504;53.766;9.626;2022-12-07T12:11:45;4.60;;;2.37;;
12871;SDS011;6504;53.766;9.626;2022-12-07T12:14:46;6.40;;;2.70;;
12871;SDS011;6504;53.766;9.626;2022-12-07T12:17:28;8.57;;;3.30;;
12871;SDS011;6504;53.766;9.626;2022-12-07T12:20:14;8.20;;;2.77;;
12871;SDS011;6504;53.766;9.626;2022-12-07T12:22:49;6.63;;;2.47;;
12871;SDS011;6504;53.766;9.626;2022-12-07T12:25:21;8.77;;;3.57;;
12871;SDS011;6504;53.766;9.626;2022-12-07T12:27:52;4.30;;;2.00;;
12871;SDS011;6504;53.766;9.626;2022-12-07T12:30:29;5.97;;;2.30;;
12871;SDS011;6504;53.766;9.626;2022-12-07T12:33:04;6.20;;;2.47;;
12871;SDS011;6504;53.766;9.626;2022-12-07T12:35:39;6.07;;;2.33;;
12871;SDS011;6504;53.766;9.626;2022-12-07T12:38:24;3.90;;;1.97;;
12871;SDS011;6504;53.766;9.626;2022-12-07T12:40:56;5.00;;;1.83;;
12871;SDS011;6504;53.766;9.626;2022-12-07T12:43:41;5.57;;;1.53;;
12871;SDS011;6504;53.766;9.626;2022-12-07T12:46:37;4.70;;;1.40;;
12871;SDS011;6504;53.766;9.626;2022-12-07T12:49:35;5.83;;;1.50;;
12871;SDS011;6504;53.766;9.626;2022-12-07T12:55:18;5.40;;;1.30;;
12871;SDS011;6504;53.766;9.626;2022-12-07T13:04:21;3.37;;;1.00;;
12871;SDS011;6504;53.766;9.626;2022-12-07T13:07:47;3.43;;;1.30;;
12871;SDS011;6504;53.766;9.626;2022-12-07T13:10:24;3.13;;;1.40;;
12871;SDS011;6504;53.766;9.626;2022-12-07T13:13:30;3.17;;;1.00;;
12871;SDS011;6504;53.766;9.626;2022-12-07T13:25:21;2.67;;;1.10;;
12871;SDS011;6504;53.766;9.626;2022-12-07T13:27:59;3.33;;;1.47;;
12871;SDS011;6504;53.766;9.626;2022-12-07T13:30:38;3.03;;;1.00;;
12871;SDS011;6504;53.766;9.626;2022-12-07T13:33:17;3.43;;;1.30;;
12871;SDS011;6504;53.766;9.626;2022-12-07T13:35:46;5.77;;;1.20;;
12871;SDS011;6504;53.766;9.626;2022-12-07T13:38:19;5.43;;;1.40;;
12871;SDS011;6504;53.766;9.626;2022-12-07T13:41:05;4.00;;;1.30;;
12871;SDS011;6504;53.766;9.626;2022-12-07T13:43:44;4.03;;;1.10;;
12871;SDS011;6504;53.766;9.626;2022-12-07T13:46:18;2.90;;;1.20;;
12871;SDS011;6504;53.766;9.626;2022-12-07T13:48:49;3.87;;;1.17;;
12871;SDS011;6504;53.766;9.626;2022-12-07T13:51:19;4.37;;;1.50;;
12871;SDS011;6504;53.766;9.626;2022-12-07T13:53:52;4.23;;;1.30;;
12871;SDS011;6504;53.766;9.626;2022-12-07T13:56:37;1.77;;;1.00;;
12871;SDS011;6504;53.766;9.626;2022-12-07T13:59:08;6.87;;;3.37;;
12871;SDS011;6504;53.766;9.626;2022-12-07T14:01:41;4.43;;;3.00;;
12871;SDS011;6504;53.766;9.626;2022-12-07T14:04:17;3.97;;;1.90;;
12871;SDS011;6504;53.766;9.626;2022-12-07T14:06:47;2.00;;;1.60;;
12871;SDS011;6504;53.766;9.626;2022-12-07T14:09:19;2.17;;;1.17;;
12871;SDS011;6504;53.766;9.626;2022-12-07T14:11:50;4.10;;;1.17;;
12871;SDS011;6504;53.766;9.626;2022-12-07T14:14:20;2.90;;;1.60;;
12871;SDS011;6504;53.766;9.626;2022-12-07T14:16:56;3.33;;;1.80;;
12871;SDS011;6504;53.766;9.626;2022-12-07T14:19:43;2.43;;;1.60;;
12871;SDS011;6504;53.766;9.626;2022-12-07T14:22:25;1.57;;;1.47;;
12871;SDS011;6504;53.766;9.626;2022-12-07T14:25:00;2.30;;;1.50;;
12871;SDS011;6504;53.766;9.626;2022-12-07T14:27:39;4.33;;;1.53;;
12871;SDS011;6504;53.766;9.626;2022-12-07T14:30:16;2.27;;;1.53;;
12871;SDS011;6504;53.766;9.626;2022-12-07T14:32:44;2.63;;;2.00;;
12871;SDS011;6504;53.766;9.626;2022-12-07T14:35:16;3.73;;;1.80;;
12871;SDS011;6504;53.766;9.626;2022-12-07T14:37:46;3.17;;;1.80;;
12871;SDS011;6504;53.766;9.626;2022-12-07T14:40:17;3.20;;;1.60;;
12871;SDS011;6504;53.766;9.626;2022-12-07T14:42:47;1.83;;;1.50;;
12871;SDS011;6504;53.766;9.626;2022-12-07T14:45:19;1.97;;;1.60;;
12871;SDS011;6504;53.766;9.626;2022-12-07T14:47:49;4.60;;;1.77;;
12871;SDS011;6504;53.766;9.626;2022-12-07T14:50:37;4.80;;;1.60;;
12871;SDS011;6504;53.766;9.626;2022-12-07T14:53:29;2.47;;;1.63;;
12871;SDS011;6504;53.766;9.626;2022-12-07T14:56:02;3.10;;;1.67;;
12871;SDS011;6504;53.766;9.626;2022-12-07T14:58:31;3.00;;;1.60;;
12871;SDS011;6504;53.766;9.626;2022-12-07T15:00:59;3.63;;;1.50;;
12871;SDS011;6504;53.766;9.626;2022-12-07T15:03:28;2.90;;;1.80;;
12871;SDS011;6504;53.766;9.626;2022-12-07T15:05:56;2.90;;;1.83;;
12871;SDS011;6504;53.766;9.626;2022-12-07T15:08:25;5.37;;;1.77;;
12871;SDS011;6504;53.766;9.626;2022-12-07T15:10:53;5.70;;;3.40;;
12871;SDS011;6504;53.766;9.626;2022-12-07T15:13:22;4.20;;;3.00;;
12871;SDS011;6504;53.766;9.626;2022-12-07T15:16:08;2.33;;;1.90;;
12871;SDS011;6504;53.766;9.626;2022-12-07T15:18:40;3.17;;;1.70;;
12871;SDS011;6504;53.766;9.626;2022-12-07T15:21:28;4.23;;;1.37;;
12871;SDS011;6504;53.766;9.626;2022-12-07T15:23:56;1.70;;;1.50;;
12871;SDS011;6504;53.766;9.626;2022-12-07T15:26:24;3.20;;;1.50;;
12871;SDS011;6504;53.766;9.626;2022-12-07T15:28:53;3.80;;;2.10;;
12871;SDS011;6504;53.766;9.626;2022-12-07T15:31:22;4.23;;;1.60;;
12871;SDS011;6504;53.766;9.626;2022-12-07T15:34:10;4.50;;;1.30;;
12871;SDS011;6504;53.766;9.626;2022-12-07T15:36:38;1.67;;;1.20;;
12871;SDS011;6504;53.766;9.626;2022-12-07T15:39:06;1.67;;;1.10;;
12871;SDS011;6504;53.766;9.626;2022-12-07T15:41:40;1.93;;;1.20;;
12871;SDS011;6504;53.766;9.626;2022-12-07T15:44:09;3.33;;;1.30;;
12871;SDS011;6504;53.766;9.626;2022-12-07T15:46:56;1.73;;;1.30;;
12871;SDS011;6504;53.766;9.626;2022-12-07T15:49:25;4.50;;;1.70;;
12871;SDS011;6504;53.766;9.626;2022-12-07T15:51:54;1.77;;;1.40;;
12871;SDS011;6504;53.766;9.626;2022-12-07T15:54:23;3.93;;;1.70;;
12871;SDS011;6504;53.766;9.626;2022-12-07T15:56:52;3.53;;;1.53;;
12871;SDS011;6504;53.766;9.626;2022-12-07T15:59:22;1.83;;;1.30;;
12871;SDS011;6504;53.766;9.626;2022-12-07T16:01:50;2.67;;;1.37;;